Time;durP1;ratioP1;P1;durP2;ratioP2;P2;SDS_P1;SDS_P2;PMS_P1;PMS_P2;Temp;Humidity;BMP_temperature;BMP_pressure;BME280_temperature;BME280_humidity;BME280_pressure;Samples;Min_cycle;Max_cycle;Signal;HPM_P1;HPM_P2
2021/08/24 00:00:34;;;;;;;11.73;8.95;;;24.40;96.90;;;;;;4864492;29;20032;-86
2021/08/24 00:03:01;;;;;;;10.75;9.35;;;24.40;97.00;;;;;;4864985;29;20110;-85
2021/08/24 00:05:37;;;;;;;11.23;9.00;;;24.40;97.00;;;;;;4881088;29;20163;-85
2021/08/24 00:08:04;;;;;;;12.55;9.27;;;24.40;97.00;;;;;;4881279;29;20032;-85
2021/08/24 00:10:40;;;;;;;11.52;9.82;;;24.40;97.00;;;;;;4864086;29;20051;-85
2021/08/24 00:13:06;;;;;;;12.80;9.77;;;24.40;97.00;;;;;;4880808;29;20476;-85
2021/08/24 00:15:33;;;;;;;12.98;10.05;;;24.40;97.00;;;;;;4863976;29;20021;-85
2021/08/24 00:18:00;;;;;;;12.95;9.80;;;24.40;97.00;;;;;;4881011;29;20052;-84
2021/08/24 00:20:30;;;;;;;13.07;9.73;;;24.40;97.00;;;;;;4881014;29;20055;-85
2021/08/24 00:23:01;;;;;;;14.35;10.45;;;24.40;97.10;;;;;;4880849;29;20486;-85
2021/08/24 00:25:26;;;;;;;14.30;10.38;;;24.40;97.10;;;;;;4880540;29;20108;-84
2021/08/24 00:27:52;;;;;;;14.45;10.80;;;24.40;97.10;;;;;;4863860;29;20115;-84
2021/08/24 00:30:18;;;;;;;14.93;10.63;;;24.40;97.10;;;;;;4848665;29;20031;-84
2021/08/24 00:32:43;;;;;;;14.68;10.65;;;24.40;97.10;;;;;;4864075;29;20072;-84
2021/08/24 00:35:09;;;;;;;14.63;10.55;;;24.40;97.10;;;;;;4864119;29;20029;-85
2021/08/24 00:37:35;;;;;;;14.43;10.73;;;24.40;97.10;;;;;;4863841;29;20037;-85
2021/08/24 00:40:02;;;;;;;13.68;11.30;;;24.40;97.10;;;;;;4880601;29;20115;-84
2021/08/24 00:42:28;;;;;;;14.88;10.98;;;24.40;97.20;;;;;;4880127;29;20119;-84
2021/08/24 00:44:53;;;;;;;14.43;11.95;;;24.40;97.20;;;;;;4880582;29;20519;-84
2021/08/24 00:47:21;;;;;;;16.40;12.27;;;24.40;97.20;;;;;;4848186;29;20040;-85
2021/08/24 00:49:48;;;;;;;16.23;12.43;;;24.40;97.20;;;;;;4863825;29;20095;-85
2021/08/24 00:52:22;;;;;;;15.18;11.85;;;24.40;97.20;;;;;;4880077;29;20467;-85
2021/08/24 00:54:48;;;;;;;14.68;11.40;;;24.40;97.20;;;;;;4863464;29;20080;-84
2021/08/24 00:57:23;;;;;;;16.88;12.38;;;24.40;97.20;;;;;;4863415;29;20104;-86
2021/08/24 00:59:50;;;;;;;16.50;12.95;;;24.40;97.20;;;;;;4863721;29;20472;-84
2021/08/24 01:02:17;;;;;;;16.88;12.93;;;24.40;97.20;;;;;;4879522;29;20080;-85
2021/08/24 01:04:45;;;;;;;14.27;11.68;;;24.40;97.20;;;;;;4879989;29;20100;-85
2021/08/24 01:07:37;;;;;;;16.15;12.13;;;24.40;97.20;;;;;;4879929;29;20021;-85
2021/08/24 01:10:12;;;;;;;17.35;13.15;;;24.40;97.30;;;;;;4863811;29;20534;-85
2021/08/24 01:13:00;;;;;;;16.27;12.27;;;24.40;97.30;;;;;;4863027;29;20123;-84
2021/08/24 01:15:49;;;;;;;16.80;13.20;;;24.40;97.30;;;;;;4863115;29;20116;-85
2021/08/24 01:18:41;;;;;;;15.43;12.85;;;24.40;97.30;;;;;;4879967;29;20052;-85
2021/08/24 01:21:28;;;;;;;17.17;12.80;;;24.40;97.30;;;;;;4879985;29;20033;-85
2021/08/24 01:24:41;;;;;;;14.40;12.38;;;24.40;97.30;;;;;;4879737;29;20543;-85
2021/08/24 01:27:13;;;;;;;15.40;12.60;;;24.40;97.40;;;;;;4867026;29;20037;-84
2021/08/24 01:29:45;;;;;;;16.00;12.82;;;24.30;97.40;;;;;;4879401;29;20029;-85
2021/08/24 01:32:35;;;;;;;13.80;12.30;;;24.30;97.40;;;;;;4862901;29;20387;-85
2021/08/24 01:35:18;;;;;;;16.17;12.85;;;24.30;97.50;;;;;;4879972;29;20032;-86
2021/08/24 01:38:08;;;;;;;17.75;12.80;;;24.30;97.50;;;;;;4863205;29;20033;-85
2021/08/24 01:41:13;;;;;;;13.23;11.52;;;24.30;97.50;;;;;;4879615;29;20048;-85
2021/08/24 01:43:49;;;;;;;14.32;11.27;;;24.30;97.60;;;;;;4879487;29;20017;-86
2021/08/24 01:46:24;;;;;;;14.30;11.65;;;24.30;97.60;;;;;;4862991;29;20132;-84
2021/08/24 01:48:53;;;;;;;15.95;11.18;;;24.30;97.60;;;;;;4862939;29;20029;-84
2021/08/24 01:51:22;;;;;;;15.10;11.82;;;24.30;97.70;;;;;;4862539;29;20029;-83
2021/08/24 01:53:59;;;;;;;15.60;11.38;;;24.20;97.70;;;;;;4879581;29;20067;-84
2021/08/24 01:56:30;;;;;;;15.10;11.40;;;24.20;97.70;;;;;;4862493;29;20516;-84
2021/08/24 01:59:28;;;;;;;12.95;10.18;;;24.20;97.70;;;;;;4862644;29;20029;-84
2021/08/24 02:02:03;;;;;;;14.38;10.93;;;24.20;97.80;;;;;;4861730;29;20033;-85
2021/08/24 02:04:47;;;;;;;13.60;10.48;;;24.20;97.80;;;;;;4878900;29;20040;-84
2021/08/24 02:07:16;;;;;;;14.77;11.00;;;24.20;97.80;;;;;;4879337;29;20048;-84
2021/08/24 02:09:47;;;;;;;14.38;10.50;;;24.20;97.80;;;;;;4879284;29;20041;-84
2021/08/24 02:12:13;;;;;;;15.30;11.07;;;24.20;97.80;;;;;;4862288;29;20119;-85
2021/08/24 02:14:41;;;;;;;13.63;11.23;;;24.20;97.80;;;;;;4879112;29;20029;-85
2021/08/24 02:17:10;;;;;;;11.65;10.23;;;24.20;97.80;;;;;;4866278;29;20057;-84
2021/08/24 02:19:44;;;;;;;13.68;11.25;;;24.20;97.90;;;;;;4883150;29;20118;-85
2021/08/24 02:22:21;;;;;;;13.48;11.10;;;24.30;97.90;;;;;;4883062;29;20107;-84
2021/08/24 02:24:53;;;;;;;13.25;10.55;;;24.20;97.90;;;;;;4882716;29;20025;-84
2021/08/24 02:27:25;;;;;;;14.48;10.63;;;24.20;97.90;;;;;;4883120;29;20029;-84
2021/08/24 02:29:50;;;;;;;12.10;10.18;;;24.20;97.90;;;;;;4866241;29;20027;-84
2021/08/24 02:32:26;;;;;;;13.38;10.63;;;24.20;98.00;;;;;;4882712;29;20390;-84
2021/08/24 02:35:15;;;;;;;13.60;10.48;;;24.20;98.00;;;;;;4866061;29;20033;-85
2021/08/24 02:38:28;;;;;;;13.07;10.15;;;24.20;98.00;;;;;;4882561;29;20378;-84
2021/08/24 02:41:11;;;;;;;13.25;10.65;;;24.20;98.00;;;;;;4791977;29;20158;-84
2021/08/24 02:44:04;;;;;;;11.95;9.90;;;24.20;98.00;;;;;;4875504;29;20040;-84
2021/08/24 02:46:35;;;;;;;12.15;10.10;;;24.20;98.00;;;;;;4882469;29;20021;-84
2021/08/24 02:49:11;;;;;;;12.98;10.00;;;24.20;98.00;;;;;;4882721;29;20021;-85
2021/08/24 02:51:38;;;;;;;13.98;10.05;;;24.20;98.00;;;;;;4882244;29;20088;-84
2021/08/24 02:54:19;;;;;;;15.23;10.60;;;24.20;98.00;;;;;;4866145;29;20040;-85
2021/08/24 02:56:45;;;;;;;13.25;9.60;;;24.20;98.10;;;;;;4865546;29;20035;-84
2021/08/24 02:59:11;;;;;;;12.45;9.77;;;24.20;98.10;;;;;;4865895;29;20115;-84
2021/08/24 03:01:37;;;;;;;13.80;10.27;;;24.20;98.10;;;;;;4882223;29;20028;-84
2021/08/24 03:04:04;;;;;;;11.40;9.65;;;24.20;98.10;;;;;;4882410;29;20029;-84
2021/08/24 03:06:32;;;;;;;12.55;10.07;;;24.20;98.10;;;;;;4865228;29;20044;-84
2021/08/24 03:08:58;;;;;;;12.35;10.18;;;24.20;98.10;;;;;;4882406;29;20024;-85
2021/08/24 03:11:27;;;;;;;12.05;9.95;;;24.20;98.10;;;;;;4882245;29;20120;-83
2021/08/24 03:14:10;;;;;;;12.63;9.68;;;24.20;98.10;;;;;;4881977;29;20037;-84
2021/08/24 03:16:50;;;;;;;12.27;9.93;;;24.20;98.10;;;;;;4881650;29;20104;-84
2021/08/24 03:19:27;;;;;;;12.55;9.68;;;24.20;98.10;;;;;;4847347;29;20045;-84
2021/08/24 03:21:55;;;;;;;12.27;10.48;;;24.20;98.10;;;;;;4863454;29;20032;-84
2021/08/24 03:24:22;;;;;;;14.07;10.52;;;24.20;98.10;;;;;;4846797;29;20030;-84
2021/08/24 03:26:49;;;;;;;13.65;10.57;;;24.20;98.20;;;;;;4862856;29;20037;-84
2021/08/24 03:29:18;;;;;;;14.15;10.75;;;24.30;98.20;;;;;;4863221;29;20032;-84
2021/08/24 03:31:50;;;;;;;15.18;11.23;;;24.30;98.20;;;;;;4863148;29;20033;-85
2021/08/24 03:34:16;;;;;;;15.15;11.43;;;24.30;98.20;;;;;;4846650;29;20467;-84
2021/08/24 03:36:41;;;;;;;13.93;11.13;;;24.30;98.20;;;;;;4862871;29;20030;-84
2021/08/24 03:39:07;;;;;;;14.18;11.02;;;24.30;98.20;;;;;;4863091;29;20034;-84
2021/08/24 03:41:33;;;;;;;12.48;10.27;;;24.30;98.20;;;;;;4862852;29;20037;-85
2021/08/24 03:43:58;;;;;;;13.00;11.00;;;24.30;98.20;;;;;;4846480;29;20029;-84
2021/08/24 03:46:24;;;;;;;14.57;11.73;;;24.30;98.20;;;;;;4846664;29;20041;-84
2021/08/24 03:48:50;;;;;;;15.20;11.75;;;24.30;98.20;;;;;;4846320;29;20040;-84
2021/08/24 03:51:15;;;;;;;14.23;11.40;;;24.30;98.20;;;;;;4862902;29;20444;-84
2021/08/24 03:53:41;;;;;;;12.93;10.60;;;24.30;98.20;;;;;;4862618;29;20451;-85
2021/08/24 03:56:07;;;;;;;13.63;11.23;;;24.30;98.20;;;;;;4862930;29;20042;-85
2021/08/24 03:58:34;;;;;;;13.65;10.77;;;24.30;98.20;;;;;;4846340;29;20076;-84
2021/08/24 04:01:00;;;;;;;15.65;11.20;;;24.30;98.20;;;;;;4862633;29;20483;-84
2021/08/24 04:03:27;;;;;;;13.23;10.40;;;24.30;98.20;;;;;;4846367;29;20139;-84
2021/08/24 04:06:00;;;;;;;13.38;10.73;;;24.30;98.20;;;;;;4830674;29;20384;-85
2021/08/24 04:08:26;;;;;;;11.65;10.02;;;24.30;98.30;;;;;;4862620;29;20029;-84
2021/08/24 04:10:52;;;;;;;13.15;10.55;;;24.30;98.30;;;;;;4845663;29;20539;-85
2021/08/24 04:13:18;;;;;;;12.27;10.25;;;24.30;98.30;;;;;;4862732;29;20025;-85
2021/08/24 04:15:44;;;;;;;13.63;10.85;;;24.30;98.30;;;;;;4845847;29;20040;-84
2021/08/24 04:18:10;;;;;;;13.55;10.73;;;24.30;98.30;;;;;;4872977;29;20502;-84
2021/08/24 04:20:35;;;;;;;13.27;10.90;;;24.30;98.30;;;;;;4881108;29;20033;-85
2021/08/24 04:23:01;;;;;;;13.13;10.15;;;24.30;98.30;;;;;;4880808;29;20037;-84
2021/08/24 04:25:27;;;;;;;14.73;10.38;;;24.30;98.30;;;;;;4880864;29;20036;-85
2021/08/24 04:27:53;;;;;;;12.95;9.88;;;24.30;98.30;;;;;;4864132;29;20025;-85
2021/08/24 04:30:18;;;;;;;15.95;11.35;;;24.30;98.30;;;;;;4864205;29;20467;-85
2021/08/24 04:32:46;;;;;;;13.10;10.13;;;24.30;98.30;;;;;;4864015;29;20032;-85
2021/08/24 04:35:14;;;;;;;12.43;10.05;;;24.30;98.30;;;;;;4863957;29;20033;-85
2021/08/24 04:37:40;;;;;;;13.52;10.35;;;24.30;98.30;;;;;;4879534;29;20021;-86
2021/08/24 04:40:06;;;;;;;13.75;9.93;;;24.30;98.30;;;;;;4863783;29;20036;-84
2021/08/24 04:42:32;;;;;;;12.00;10.27;;;24.30;98.30;;;;;;4864054;29;20045;-84
2021/08/24 04:44:58;;;;;;;11.23;9.30;;;24.30;98.30;;;;;;4880472;29;20032;-84
2021/08/24 04:47:24;;;;;;;13.30;9.93;;;24.30;98.30;;;;;;4848568;29;20029;-84
2021/08/24 04:49:50;;;;;;;11.60;9.15;;;24.30;98.30;;;;;;4848211;29;20029;-84
2021/08/24 04:52:16;;;;;;;12.82;9.48;;;24.30;98.30;;;;;;4880293;29;20033;-84
2021/08/24 04:54:41;;;;;;;11.50;9.30;;;24.30;98.30;;;;;;4863391;29;20384;-84
2021/08/24 04:57:07;;;;;;;11.18;9.25;;;24.30;98.30;;;;;;4880489;29;20460;-84
2021/08/24 04:59:33;;;;;;;11.35;8.75;;;24.30;98.40;;;;;;4863776;29;20078;-84
2021/08/24 05:01:59;;;;;;;10.57;8.63;;;24.30;98.40;;;;;;4879990;29;20033;-84
2021/08/24 05:04:25;;;;;;;11.80;9.30;;;24.30;98.40;;;;;;4848099;29;20043;-84
2021/08/24 05:06:52;;;;;;;10.63;9.18;;;24.30;98.40;;;;;;4879891;29;20068;-84
2021/08/24 05:09:18;;;;;;;10.77;8.98;;;24.30;98.40;;;;;;4879974;29;20144;-84
2021/08/24 05:11:44;;;;;;;12.13;8.80;;;24.30;98.40;;;;;;4863361;29;20037;-84
2021/08/24 05:14:10;;;;;;;11.55;9.25;;;24.30;98.40;;;;;;4848347;29;20033;-84
2021/08/24 05:16:36;;;;;;;12.10;9.10;;;24.30;98.40;;;;;;4863220;29;20039;-84
2021/08/24 05:19:01;;;;;;;10.52;8.65;;;24.30;98.40;;;;;;4863209;29;20069;-84
2021/08/24 05:21:27;;;;;;;11.30;8.48;;;24.30;98.40;;;;;;4863338;29;20510;-84
2021/08/24 05:23:53;;;;;;;9.45;8.15;;;24.30;98.40;;;;;;4863037;29;20056;-84
2021/08/24 05:26:20;;;;;;;12.35;8.77;;;24.30;98.40;;;;;;4848016;29;20037;-84
2021/08/24 05:28:46;;;;;;;11.13;8.63;;;24.30;98.40;;;;;;4879529;29;20029;-84
2021/08/24 05:31:13;;;;;;;11.98;8.60;;;24.30;98.40;;;;;;4863206;29;20025;-84
2021/08/24 05:33:39;;;;;;;10.63;8.45;;;24.30;98.50;;;;;;4863270;29;20037;-84
2021/08/24 05:36:05;;;;;;;11.25;8.38;;;24.30;98.50;;;;;;4862877;29;20033;-84
2021/08/24 05:38:32;;;;;;;9.65;7.45;;;24.30;98.50;;;;;;4879625;29;20052;-83
2021/08/24 05:40:59;;;;;;;9.35;8.05;;;24.30;98.50;;;;;;4879305;29;20025;-84
2021/08/24 05:43:31;;;;;;;9.45;7.88;;;24.30;98.50;;;;;;4863193;29;20064;-84
2021/08/24 05:46:01;;;;;;;12.25;8.77;;;24.30;98.50;;;;;;4863752;29;20149;-84
2021/08/24 05:48:27;;;;;;;10.88;8.10;;;24.40;98.60;;;;;;4879673;29;20033;-84
2021/08/24 05:50:53;;;;;;;9.75;7.55;;;24.40;98.60;;;;;;4862301;29;20456;-84
2021/08/24 05:53:18;;;;;;;11.43;8.32;;;24.40;98.60;;;;;;4879693;29;20117;-83
2021/08/24 05:55:44;;;;;;;13.00;8.32;;;24.40;98.60;;;;;;4862854;29;20469;-84
2021/08/24 05:58:10;;;;;;;9.68;7.20;;;24.40;98.60;;;;;;4862626;29;20032;-84
2021/08/24 06:00:37;;;;;;;8.77;7.47;;;24.40;98.60;;;;;;4862784;29;20037;-85
2021/08/24 06:03:03;;;;;;;11.10;8.30;;;24.40;98.60;;;;;;4879103;29;20033;-85
2021/08/24 06:05:29;;;;;;;10.35;7.63;;;24.40;98.60;;;;;;4847418;29;20128;-85
2021/08/24 06:07:55;;;;;;;8.73;6.88;;;24.40;98.60;;;;;;4862463;29;20119;-85
2021/08/24 06:10:21;;;;;;;10.32;7.55;;;24.40;98.60;;;;;;4863007;29;20057;-85
2021/08/24 06:12:46;;;;;;;8.82;7.18;;;24.40;98.60;;;;;;4862570;29;20032;-83
2021/08/24 06:15:14;;;;;;;10.93;7.00;;;24.40;98.70;;;;;;4862794;29;20486;-84
2021/08/24 06:17:41;;;;;;;7.70;6.40;;;24.40;98.70;;;;;;4862593;29;20373;-83
2021/08/24 06:20:08;;;;;;;9.13;6.85;;;24.40;98.70;;;;;;4862435;29;20083;-83
2021/08/24 06:22:34;;;;;;;9.35;6.93;;;24.40;98.70;;;;;;4879334;29;20037;-84
2021/08/24 06:25:00;;;;;;;9.20;6.70;;;24.40;98.70;;;;;;4847096;29;20360;-84
2021/08/24 06:27:28;;;;;;;9.20;6.40;;;24.40;98.70;;;;;;4879134;29;20092;-83
2021/08/24 06:29:54;;;;;;;7.30;6.20;;;24.40;98.70;;;;;;4878951;29;20048;-84
2021/08/24 06:32:31;;;;;;;8.70;6.45;;;24.40;98.70;;;;;;4862378;29;20052;-84
2021/08/24 06:34:57;;;;;;;7.53;5.72;;;24.40;98.70;;;;;;4878743;29;20040;-84
2021/08/24 06:37:23;;;;;;;7.88;6.32;;;24.40;98.70;;;;;;4862311;29;20029;-83
2021/08/24 06:39:49;;;;;;;6.93;5.70;;;24.40;98.70;;;;;;4862396;29;20151;-84
2021/08/24 06:42:14;;;;;;;7.45;5.80;;;24.40;98.80;;;;;;4878786;29;20025;-85
2021/08/24 06:44:40;;;;;;;7.95;5.60;;;24.40;98.80;;;;;;4862270;29;20025;-86
2021/08/24 06:47:06;;;;;;;6.70;5.28;;;24.40;98.80;;;;;;4878690;29;20033;-87
2021/08/24 06:49:31;;;;;;;8.32;5.85;;;24.40;98.80;;;;;;4847032;29;20064;-87
2021/08/24 06:51:59;;;;;;;7.28;5.45;;;24.50;98.80;;;;;;4846669;29;20379;-83
2021/08/24 06:54:29;;;;;;;8.25;5.35;;;24.40;98.80;;;;;;4861856;29;20037;-83
2021/08/24 06:56:55;;;;;;;8.57;5.53;;;24.50;98.80;;;;;;4878449;29;20021;-84
2021/08/24 06:59:20;;;;;;;7.60;5.05;;;24.50;98.80;;;;;;4846853;29;20365;-83
2021/08/24 07:01:47;;;;;;;6.60;4.97;;;24.50;98.80;;;;;;4857152;29;20033;-85
2021/08/24 07:04:12;;;;;;;7.13;5.28;;;24.50;98.80;;;;;;4840777;29;20022;-84
2021/08/24 07:06:39;;;;;;;6.43;5.20;;;24.50;98.80;;;;;;4846680;29;20033;-83
2021/08/24 07:09:06;;;;;;;5.55;4.50;;;24.50;98.80;;;;;;4859091;29;20034;-84
2021/08/24 07:11:31;;;;;;;7.40;4.78;;;24.50;98.80;;;;;;4854476;29;20030;-84
2021/08/24 07:14:00;;;;;;;7.05;4.88;;;24.50;99.00;;;;;;4855915;29;20040;-85
2021/08/24 07:16:26;;;;;;;5.50;4.15;;;24.50;98.80;;;;;;4872720;29;20032;-84
2021/08/24 07:18:53;;;;;;;6.10;4.28;;;24.50;98.70;;;;;;4846928;29;20085;-84
2021/08/24 07:21:21;;;;;;;6.07;4.45;;;24.50;98.80;;;;;;4864992;29;20041;-84
2021/08/24 07:23:48;;;;;;;6.32;4.28;;;24.50;98.80;;;;;;4882014;29;20031;-84
2021/08/24 07:26:15;;;;;;;5.25;4.05;;;24.50;98.80;;;;;;4881647;29;20115;-84
2021/08/24 07:28:40;;;;;;;6.63;4.63;;;24.50;98.70;;;;;;4841765;29;20029;-84
2021/08/24 07:31:07;;;;;;;7.13;4.63;;;24.50;98.80;;;;;;4862489;29;20096;-83
2021/08/24 07:33:33;;;;;;;5.82;4.35;;;24.50;98.70;;;;;;4853445;29;20399;-84
2021/08/24 07:36:00;;;;;;;6.88;4.80;;;24.50;98.80;;;;;;4871121;29;20025;-87
2021/08/24 07:38:26;;;;;;;7.20;4.45;;;24.50;98.70;;;;;;4872545;29;20034;-83
2021/08/24 07:40:52;;;;;;;5.53;4.30;;;24.50;98.70;;;;;;4870437;29;20041;-84
2021/08/24 07:43:19;;;;;;;6.82;4.40;;;24.50;98.70;;;;;;4853993;29;20468;-84
2021/08/24 07:45:46;;;;;;;5.88;4.47;;;24.50;98.70;;;;;;4871257;29;20040;-84
2021/08/24 07:48:12;;;;;;;7.22;4.95;;;24.50;98.70;;;;;;4865209;29;20037;-84
2021/08/24 07:50:38;;;;;;;4.85;3.78;;;24.50;98.70;;;;;;4879855;29;20511;-82
2021/08/24 07:53:04;;;;;;;7.47;4.68;;;24.50;98.70;;;;;;4881361;29;20048;-84
2021/08/24 07:55:32;;;;;;;8.20;5.05;;;24.50;98.70;;;;;;4857139;29;20045;-86
2021/08/24 07:57:58;;;;;;;6.60;4.97;;;24.50;98.70;;;;;;4871299;29;20057;-84
2021/08/24 08:00:27;;;;;;;6.70;4.95;;;24.50;98.60;;;;;;4862721;29;20056;-82
2021/08/24 08:02:53;;;;;;;9.27;5.25;;;24.50;98.60;;;;;;4881687;29;20036;-83
2021/08/24 08:05:22;;;;;;;8.20;5.50;;;24.50;98.60;;;;;;4848858;29;20088;-83
2021/08/24 08:07:48;;;;;;;7.28;5.20;;;24.60;98.70;;;;;;4863947;29;20029;-82
2021/08/24 08:10:13;;;;;;;7.35;4.75;;;24.60;98.60;;;;;;4863894;29;20037;-84
2021/08/24 08:12:40;;;;;;;7.18;4.85;;;24.50;98.70;;;;;;4863847;29;20108;-85
2021/08/24 08:15:11;;;;;;;6.20;4.68;;;24.50;98.70;;;;;;4869806;29;20033;-84
2021/08/24 08:17:36;;;;;;;6.72;4.60;;;24.50;98.80;;;;;;4838971;29;20049;-84
2021/08/24 08:20:04;;;;;;;7.22;4.90;;;24.50;98.80;;;;;;4852098;29;20089;-85
2021/08/24 08:22:29;;;;;;;4.88;3.92;;;24.50;98.80;;;;;;4862374;29;20034;-85
2021/08/24 08:24:55;;;;;;;6.03;3.83;;;24.50;98.70;;;;;;4849700;29;20064;-84
2021/08/24 08:27:21;;;;;;;5.68;4.13;;;24.50;98.60;;;;;;4872000;29;20060;-85
2021/08/24 08:29:46;;;;;;;5.22;3.85;;;24.50;98.60;;;;;;4848355;29;20037;-84
2021/08/24 08:32:20;;;;;;;4.88;3.40;;;24.50;98.60;;;;;;4863754;29;20396;-84
2021/08/24 08:34:45;;;;;;;5.73;3.60;;;24.50;98.60;;;;;;4878026;29;20052;-84
2021/08/24 08:37:11;;;;;;;6.82;3.85;;;24.60;98.70;;;;;;4846816;29;20033;-84
2021/08/24 08:39:37;;;;;;;5.22;3.05;;;24.60;98.90;;;;;;4829852;29;20044;-84
2021/08/24 08:42:40;;;;;;;4.60;3.15;;;24.60;99.00;;;;;;4844673;29;20093;-85
2021/08/24 08:45:26;;;;;;;5.18;3.40;;;24.60;99.20;;;;;;4863938;29;20037;-85
2021/08/24 08:48:34;;;;;;;6.43;3.33;;;24.60;99.20;;;;;;4880063;29;20097;-85
2021/08/24 08:51:06;;;;;;;5.03;2.85;;;24.60;99.20;;;;;;4828505;29;20048;-84
2021/08/24 08:53:44;;;;;;;3.97;3.00;;;24.70;99.10;;;;;;4862871;29;20036;-86
2021/08/24 08:56:38;;;;;;;3.72;2.70;;;24.70;99.00;;;;;;4877931;29;20029;-85
2021/08/24 08:59:07;;;;;;;3.75;2.15;;;24.70;98.90;;;;;;4845767;29;20518;-85
2021/08/24 09:01:58;;;;;;;3.22;2.13;;;24.70;98.80;;;;;;4875426;29;20037;-85
2021/08/24 09:04:29;;;;;;;4.68;2.60;;;24.70;98.70;;;;;;4872041;29;20034;-85
2021/08/24 09:06:57;;;;;;;4.40;2.28;;;24.70;98.60;;;;;;4873012;29;20045;-85
2021/08/24 09:09:24;;;;;;;3.35;1.77;;;24.70;98.50;;;;;;4849854;29;20097;-85
2021/08/24 09:11:51;;;;;;;3.45;2.20;;;24.70;98.40;;;;;;4866185;29;20033;-85
2021/08/24 09:14:33;;;;;;;3.42;2.40;;;24.70;98.20;;;;;;4845464;29;20037;-84
2021/08/24 09:17:04;;;;;;;2.42;2.00;;;24.70;98.10;;;;;;4859696;29;20097;-84
2021/08/24 09:20:05;;;;;;;3.08;2.22;;;24.70;98.00;;;;;;4858349;29;20046;-84
2021/08/24 09:22:31;;;;;;;3.40;1.85;;;24.70;98.00;;;;;;4857035;29;20110;-84
2021/08/24 09:25:05;;;;;;;3.90;1.95;;;24.70;97.90;;;;;;4834753;29;20037;-84
2021/08/24 09:27:40;;;;;;;;;;;24.70;97.80;;;;;;4851825;29;20033;-86
2021/08/24 09:30:06;;;;;;;5.55;1.83;;;24.70;97.80;;;;;;4845827;29;19919;-84
2021/08/24 09:32:32;;;;;;;3.85;1.90;;;24.80;97.70;;;;;;4853322;29;20046;-83
2021/08/24 09:35:08;;;;;;;5.25;2.10;;;24.70;97.60;;;;;;4841707;29;20038;-84
2021/08/24 09:37:38;;;;;;;4.38;1.92;;;24.70;97.50;;;;;;4847827;29;20136;-85
2021/08/24 09:40:07;;;;;;;3.60;1.90;;;24.70;97.50;;;;;;4851652;29;20037;-84
2021/08/24 09:42:36;;;;;;;2.78;1.73;;;24.70;97.40;;;;;;4855576;29;20037;-83
2021/08/24 09:45:19;;;;;;;2.10;1.70;;;24.70;97.40;;;;;;4845956;29;20382;-83
2021/08/24 09:48:00;;;;;;;2.45;1.73;;;24.70;97.40;;;;;;4851458;29;20030;-82
2021/08/24 09:50:32;;;;;;;2.15;1.30;;;24.70;97.70;;;;;;4857721;29;20033;-83
2021/08/24 09:52:59;;;;;;;2.35;1.80;;;24.70;97.50;;;;;;4857392;29;20522;-83
2021/08/24 09:55:28;;;;;;;2.35;1.80;;;24.70;97.50;;;;;;4839224;29;20090;-83
2021/08/24 09:58:02;;;;;;;4.70;1.80;;;24.70;97.50;;;;;;4833059;29;20035;-83
2021/08/24 10:00:55;;;;;;;3.17;1.60;;;24.70;97.60;;;;;;4840144;29;20727;-83
2021/08/24 10:03:28;;;;;;;1.60;1.45;;;24.70;97.50;;;;;;4856752;29;20062;-83
2021/08/24 10:06:20;;;;;;;2.55;1.80;;;24.70;97.50;;;;;;4854426;29;20505;-84
2021/08/24 10:08:46;;;;;;;2.30;1.75;;;24.70;97.50;;;;;;4855603;29;20092;-83
2021/08/24 10:11:14;;;;;;;2.08;1.65;;;24.70;97.50;;;;;;4836086;29;20050;-83
2021/08/24 10:13:43;;;;;;;2.83;1.67;;;24.70;97.50;;;;;;4850229;29;20058;-82
2021/08/24 10:16:24;;;;;;;4.03;1.60;;;24.70;97.40;;;;;;4856867;29;20491;-82
2021/08/24 10:19:04;;;;;;;2.35;1.50;;;24.70;97.40;;;;;;4854775;29;20060;-82
2021/08/24 10:21:41;;;;;;;2.00;1.50;;;24.70;97.30;;;;;;4876078;29;20074;-83
2021/08/24 10:24:12;;;;;;;1.98;1.70;;;24.70;97.30;;;;;;4862125;29;20480;-84
2021/08/24 10:26:38;;;;;;;2.70;1.67;;;24.80;97.30;;;;;;4867218;29;20120;-83
2021/08/24 10:29:10;;;;;;;2.65;1.85;;;24.80;97.20;;;;;;4871601;29;20045;-84
2021/08/24 10:31:40;;;;;;;2.92;1.98;;;24.80;97.20;;;;;;4875016;29;20518;-84
2021/08/24 10:34:25;;;;;;;2.97;1.70;;;24.80;97.20;;;;;;4867666;29;20044;-84
2021/08/24 10:36:51;;;;;;;3.50;1.98;;;24.80;97.10;;;;;;4876277;29;20055;-85
2021/08/24 10:39:23;;;;;;;3.67;2.13;;;24.80;97.10;;;;;;4880419;29;20480;-84
2021/08/24 10:42:12;;;;;;;2.25;1.67;;;24.80;97.00;;;;;;4880768;29;20041;-84
2021/08/24 10:44:55;;;;;;;2.55;1.80;;;24.90;97.00;;;;;;4862971;29;20057;-85
2021/08/24 10:47:45;;;;;;;1.77;1.50;;;24.90;96.90;;;;;;4864883;29;20151;-84
2021/08/24 10:50:22;;;;;;;2.50;1.70;;;24.90;96.90;;;;;;4854945;29;20037;-83
2021/08/24 10:53:16;;;;;;;2.22;1.75;;;24.90;96.90;;;;;;4863300;29;20049;-83
2021/08/24 10:55:54;;;;;;;2.03;1.70;;;24.90;96.80;;;;;;4878304;29;20047;-84
2021/08/24 10:58:48;;;;;;;4.13;1.80;;;24.90;96.80;;;;;;4866003;29;20078;-83
2021/08/24 11:01:36;;;;;;;2.58;2.00;;;24.90;96.90;;;;;;4863380;29;20056;-83
2021/08/24 11:04:19;;;;;;;1.98;1.52;;;25.00;96.90;;;;;;4861280;29;20047;-84
2021/08/24 11:07:22;;;;;;;2.72;1.85;;;25.00;96.80;;;;;;4879832;29;20029;-83
2021/08/24 11:09:54;;;;;;;2.70;2.00;;;25.00;96.70;;;;;;4878261;29;20126;-84
2021/08/24 11:12:45;;;;;;;3.08;2.08;;;25.00;96.70;;;;;;4862786;29;20065;-83
2021/08/24 11:15:34;;;;;;;2.28;1.60;;;25.00;96.70;;;;;;4863920;29;20076;-83
2021/08/24 11:18:30;;;;;;;2.95;2.00;;;25.00;96.70;;;;;;4877101;29;20053;-83
2021/08/24 11:21:10;;;;;;;2.40;2.00;;;25.00;96.80;;;;;;4845882;29;20487;-84
2021/08/24 11:23:53;;;;;;;2.15;1.75;;;25.00;96.80;;;;;;4862466;29;20094;-83
2021/08/24 11:26:27;;;;;;;3.10;1.87;;;25.00;96.80;;;;;;4871650;29;20165;-84
2021/08/24 11:29:17;;;;;;;3.13;1.98;;;25.00;97.00;;;;;;4847423;29;20030;-83
2021/08/24 11:31:57;;;;;;;3.17;1.60;;;25.00;96.80;;;;;;4864595;29;20033;-84
2021/08/24 11:34:40;;;;;;;2.13;1.80;;;25.00;96.80;;;;;;4863343;29;20499;-84
2021/08/24 11:37:12;;;;;;;2.53;1.60;;;25.00;96.80;;;;;;4875104;29;20082;-84
2021/08/24 11:39:50;;;;;;;2.40;1.73;;;25.00;96.80;;;;;;4869077;29;20144;-83
2021/08/24 11:42:41;;;;;;;3.75;1.77;;;25.00;96.80;;;;;;4862654;29;20169;-83
2021/08/24 11:45:21;;;;;;;2.28;1.40;;;25.00;96.90;;;;;;4877322;29;20037;-86
2021/08/24 11:47:53;;;;;;;3.08;1.70;;;25.00;96.90;;;;;;4858612;29;20034;-84
2021/08/24 11:50:26;;;;;;;3.28;1.77;;;25.00;96.90;;;;;;4866434;29;20030;-83
2021/08/24 11:52:58;;;;;;;2.78;1.80;;;25.00;96.90;;;;;;4875970;29;20493;-83
2021/08/24 11:55:31;;;;;;;3.33;1.58;;;25.00;96.80;;;;;;4872635;29;20055;-84
2021/08/24 11:58:24;;;;;;;2.80;2.10;;;25.00;96.80;;;;;;4878644;29;20471;-84
2021/08/24 12:00:53;;;;;;;2.83;1.88;;;25.00;97.10;;;;;;4861633;29;20383;-87
2021/08/24 12:03:21;;;;;;;3.50;2.10;;;25.00;96.90;;;;;;4865229;29;20041;-84
2021/08/24 12:06:18;;;;;;;1.63;1.52;;;25.00;96.90;;;;;;4862845;29;20109;-84
2021/08/24 12:08:48;;;;;;;2.15;1.63;;;24.90;97.00;;;;;;4862598;29;20076;-83
2021/08/24 12:11:20;;;;;;;2.63;2.17;;;25.00;96.90;;;;;;4878230;29;20040;-84
2021/08/24 12:13:55;;;;;;;1.90;1.70;;;24.90;96.90;;;;;;4878742;29;20037;-83
2021/08/24 12:16:20;;;;;;;2.80;1.80;;;24.90;97.00;;;;;;4864157;29;20391;-84
2021/08/24 12:18:48;;;;;;;2.30;2.10;;;24.90;97.20;;;;;;4857148;29;20140;-84
2021/08/24 12:21:50;;;;;;;3.20;2.42;;;24.90;96.90;;;;;;4874998;29;20025;-84
2021/08/24 12:24:24;;;;;;;2.90;2.33;;;24.80;97.00;;;;;;4851146;29;20066;-84
2021/08/24 12:26:56;;;;;;;3.50;2.30;;;24.80;97.20;;;;;;4861231;29;20468;-83
2021/08/24 12:29:34;;;;;;;2.90;2.00;;;24.80;97.50;;;;;;4862491;29;20487;-84
2021/08/24 12:32:04;;;;;;;3.67;2.50;;;24.80;97.80;;;;;;4861485;29;20497;-83
2021/08/24 12:34:33;;;;;;;5.28;3.65;;;24.80;97.80;;;;;;4830786;29;20041;-83
2021/08/24 12:37:22;;;;;;;5.78;3.88;;;24.80;97.90;;;;;;4861890;29;20044;-83
2021/08/24 12:39:52;;;;;;;4.97;3.53;;;24.80;97.90;;;;;;4844450;29;20082;-83
2021/08/24 12:42:23;;;;;;;5.53;4.07;;;24.80;97.90;;;;;;4845061;29;20106;-83
2021/08/24 12:44:50;;;;;;;3.83;3.30;;;24.70;98.10;;;;;;4861894;29;20076;-83
2021/08/24 12:47:21;;;;;;;3.60;3.05;;;24.70;98.00;;;;;;4845126;29;20502;-83
2021/08/24 12:49:47;;;;;;;3.25;2.28;;;24.70;98.00;;;;;;4861701;29;20051;-82
2021/08/24 12:52:19;;;;;;;3.58;2.72;;;24.70;98.00;;;;;;4829547;29;20042;-82
2021/08/24 12:55:16;;;;;;;4.43;3.08;;;24.70;97.90;;;;;;4844955;29;20037;-83
2021/08/24 12:57:46;;;;;;;3.35;2.08;;;24.70;98.00;;;;;;4810850;29;20426;-84
2021/08/24 13:00:20;;;;;;;3.13;2.50;;;24.70;98.10;;;;;;4844369;29;20033;-83
2021/08/24 13:03:17;;;;;;;3.47;2.70;;;24.70;98.10;;;;;;4844707;29;20510;-83
2021/08/24 13:05:44;;;;;;;2.83;2.30;;;24.70;98.10;;;;;;4861260;29;20476;-83